Time;durP1;ratioP1;P1;durP2;ratioP2;P2;SDS_P1;SDS_P2;PMS_P1;PMS_P2;Temp;Humidity;BMP_temperature;BMP_pressure;BME280_temperature;BME280_humidity;BME280_pressure;Samples;Min_cycle;Max_cycle;Signal;HPM_P1;HPM_P2
2023/07/26 00:02:25;;;;;;;4.15;2.53;;;16.10;60.40;;;;;;6216786;23;20179;-94
2023/07/26 00:04:52;;;;;;;5.30;2.42;;;16.10;89.30;;;;;;6217267;23;20203;-94
2023/07/26 00:07:19;;;;;;;4.93;2.40;;;16.10;99.90;;;;;;6217130;23;20319;-94
2023/07/26 00:09:46;;;;;;;3.45;2.20;;;16.00;99.90;;;;;;6216593;23;20197;-94
2023/07/26 00:12:13;;;;;;;5.47;2.47;;;16.00;99.90;;;;;;6216778;23;20240;-94
2023/07/26 00:14:41;;;;;;;4.60;2.63;;;15.90;99.90;;;;;;6216622;23;20778;-94
2023/07/26 00:17:08;;;;;;;3.80;2.30;;;15.90;99.90;;;;;;6216525;23;20210;-94
2023/07/26 00:19:36;;;;;;;5.10;2.45;;;15.90;99.90;;;;;;6217426;23;20225;-93
2023/07/26 00:22:04;;;;;;;6.18;2.53;;;15.80;99.90;;;;;;6216279;23;20170;-93
2023/07/26 00:24:31;;;;;;;5.13;2.53;;;15.80;99.90;;;;;;6216908;23;20175;-94
2023/07/26 00:26:58;;;;;;;4.63;2.53;;;15.70;99.90;;;;;;6216427;23;20177;-93
2023/07/26 00:29:25;;;;;;;4.18;2.65;;;15.70;99.90;;;;;;6216716;23;20170;-93
2023/07/26 00:31:52;;;;;;;6.55;2.47;;;15.70;1.00;;;;;;6216431;23;20202;-95
2023/07/26 00:34:20;;;;;;;4.22;2.38;;;15.60;1.00;;;;;;6216836;23;20194;-94
2023/07/26 00:36:48;;;;;;;3.10;2.40;;;15.60;1.00;;;;;;6217191;23;20524;-93
2023/07/26 00:39:15;;;;;;;3.78;2.33;;;15.60;1.00;;;;;;6216766;23;20170;-96
2023/07/26 00:41:43;;;;;;;3.80;2.28;;;15.60;1.00;;;;;;6216420;23;20193;-93
2023/07/26 00:44:10;;;;;;;5.05;2.42;;;15.60;1.00;;;;;;6216477;23;20168;-92
2023/07/26 00:46:37;;;;;;;5.05;2.88;;;15.60;1.00;;;;;;6216877;23;20177;-94
2023/07/26 00:49:05;;;;;;;4.90;2.58;;;15.60;1.00;;;;;;6216693;23;20448;-93
2023/07/26 00:51:34;;;;;;;5.97;2.45;;;15.50;1.00;;;;;;6216535;23;20181;-93
2023/07/26 00:54:03;;;;;;;4.93;2.53;;;15.50;1.00;;;;;;6216362;23;20244;-94
2023/07/26 00:56:31;;;;;;;4.20;2.42;;;15.50;1.00;;;;;;6216520;23;20659;-92
2023/07/26 00:58:58;;;;;;;5.05;2.70;;;15.50;1.00;;;;;;6216140;23;20172;-93
2023/07/26 01:01:26;;;;;;;4.03;2.58;;;15.60;1.00;;;;;;6216586;23;20179;-94
2023/07/26 01:03:54;;;;;;;4.93;2.50;;;15.60;1.00;;;;;;6216731;23;20173;-93
2023/07/26 01:06:27;;;;;;;4.77;2.47;;;15.50;1.00;;;;;;6216119;23;20287;-93
2023/07/26 01:09:03;;;;;;;3.17;2.28;;;15.50;1.00;;;;;;6217088;23;20457;-93
2023/07/26 01:11:36;;;;;;;4.68;2.50;;;15.50;1.00;;;;;;6216415;23;20160;-93
2023/07/26 01:14:14;;;;;;;5.60;2.63;;;15.50;1.00;;;;;;6216384;23;20266;-92
2023/07/26 01:16:41;;;;;;;6.28;2.33;;;15.50;1.00;;;;;;6216530;23;20559;-92
2023/07/26 01:19:09;;;;;;;4.20;2.50;;;15.50;1.00;;;;;;6216762;23;20209;-95
2023/07/26 01:21:37;;;;;;;5.38;2.88;;;15.40;1.00;;;;;;6216519;23;20608;-92
2023/07/26 01:24:05;;;;;;;5.87;2.67;;;15.40;1.00;;;;;;6216495;23;20171;-92
2023/07/26 01:26:32;;;;;;;3.35;2.63;;;15.40;1.00;;;;;;6216607;23;20172;-93
2023/07/26 01:28:59;;;;;;;3.17;2.47;;;15.30;1.00;;;;;;6217138;23;20210;-96
2023/07/26 01:31:27;;;;;;;4.05;2.50;;;15.30;65.40;;;;;;6216470;23;20251;-93
2023/07/26 01:33:54;;;;;;;5.07;2.47;;;15.20;99.90;;;;;;6216221;23;20187;-91
2023/07/26 01:36:23;;;;;;;10.83;2.63;;;15.20;99.90;;;;;;6216921;23;20228;-94
2023/07/26 01:38:53;;;;;;;6.50;2.53;;;15.20;99.90;;;;;;6216562;23;20620;-93
2023/07/26 01:41:21;;;;;;;4.20;2.20;;;15.20;99.90;;;;;;6216109;23;20193;-93
2023/07/26 01:43:48;;;;;;;4.17;2.57;;;15.10;99.90;;;;;;6216575;23;20657;-92
2023/07/26 01:46:16;;;;;;;3.80;2.53;;;15.10;99.90;;;;;;6217262;23;20680;-96
2023/07/26 01:48:43;;;;;;;7.10;2.67;;;15.10;99.90;;;;;;6216389;23;20259;-95
2023/07/26 01:51:10;;;;;;;7.20;2.67;;;15.00;99.90;;;;;;6216247;23;20204;-95
2023/07/26 01:53:37;;;;;;;3.80;2.57;;;15.00;99.90;;;;;;6216720;23;20622;-95
2023/07/26 01:56:06;;;;;;;3.83;2.60;;;15.00;99.90;;;;;;6216448;23;20249;-95
2023/07/26 01:58:34;;;;;;;3.25;2.28;;;14.90;99.90;;;;;;6216465;23;20206;-96
2023/07/26 02:01:03;;;;;;;5.13;2.80;;;14.90;99.90;;;;;;6216704;23;20632;-94
2023/07/26 02:03:30;;;;;;;5.73;2.60;;;14.90;99.90;;;;;;6216885;23;20178;-96
2023/07/26 02:05:57;;;;;;;3.80;2.50;;;14.80;99.90;;;;;;6216709;23;20169;-95
2023/07/26 02:08:24;;;;;;;4.43;2.70;;;14.80;99.90;;;;;;6216500;23;20181;-93
2023/07/26 02:10:51;;;;;;;4.63;2.57;;;14.80;99.90;;;;;;6216539;23;20268;-95
2023/07/26 02:13:20;;;;;;;5.47;2.63;;;14.70;99.90;;;;;;6216109;23;20183;-95
2023/07/26 02:15:47;;;;;;;6.67;2.50;;;14.60;99.90;;;;;;6216551;23;20278;-94
2023/07/26 02:18:15;;;;;;;4.37;2.60;;;14.60;99.90;;;;;;6217141;23;20217;-95
2023/07/26 02:20:42;;;;;;;6.07;2.77;;;14.60;99.90;;;;;;6218793;23;20649;-95
2023/07/26 02:23:10;;;;;;;7.20;2.90;;;14.50;99.90;;;;;;6217576;23;20251;-96
2023/07/26 02:25:37;;;;;;;4.57;2.67;;;14.50;99.90;;;;;;6218022;23;20207;-95
2023/07/26 02:28:04;;;;;;;7.00;2.67;;;14.40;99.90;;;;;;6218396;23;20638;-95
2023/07/26 02:30:33;;;;;;;3.20;2.20;;;14.40;99.90;;;;;;6217708;23;20259;-96
2023/07/26 02:33:00;;;;;;;3.77;2.57;;;14.40;99.90;;;;;;6217931;23;20255;-95
2023/07/26 02:35:27;;;;;;;4.20;2.57;;;14.30;99.90;;;;;;6217350;23;20190;-95
2023/07/26 02:37:54;;;;;;;4.33;2.57;;;14.30;99.90;;;;;;6218248;23;20251;-95
2023/07/26 02:40:22;;;;;;;4.13;2.60;;;14.20;99.90;;;;;;6218502;23;20227;-94
2023/07/26 02:42:49;;;;;;;4.03;2.40;;;14.20;99.90;;;;;;6217326;23;20499;-96
2023/07/26 02:45:16;;;;;;;4.70;2.43;;;14.20;99.90;;;;;;6217796;23;20230;-94
2023/07/26 02:47:45;;;;;;;4.50;2.37;;;14.10;99.90;;;;;;6217738;23;20272;-96
2023/07/26 02:50:12;;;;;;;5.30;2.60;;;14.10;99.90;;;;;;6217881;23;20713;-95
2023/07/26 02:52:39;;;;;;;3.70;2.10;;;14.10;99.90;;;;;;6218139;23;20171;-96
2023/07/26 02:55:07;;;;;;;6.00;2.60;;;14.10;99.90;;;;;;6217262;23;20369;-96
2023/07/26 02:57:34;;;;;;;6.73;2.23;;;14.10;99.90;;;;;;6217854;23;20163;-95
2023/07/26 03:00:01;;;;;;;4.17;2.20;;;14.10;99.90;;;;;;6218108;23;20255;-95
2023/07/26 03:02:28;;;;;;;5.07;2.57;;;14.10;99.90;;;;;;6217714;23;20247;-95
2023/07/26 03:04:57;;;;;;;3.57;2.20;;;14.20;99.90;;;;;;6217701;23;20172;-94
2023/07/26 03:07:24;;;;;;;5.40;2.20;;;14.20;99.90;;;;;;6217185;23;20716;-95
2023/07/26 03:09:51;;;;;;;5.87;2.13;;;14.20;99.90;;;;;;6217315;23;20250;-95
2023/07/26 03:12:18;;;;;;;3.17;2.13;;;14.20;99.90;;;;;;6217381;23;20177;-95
2023/07/26 03:14:45;;;;;;;2.80;1.80;;;14.20;54.90;;;;;;6217299;23;20194;-95
2023/07/26 03:17:13;;;;;;;7.93;2.10;;;14.20;19.70;;;;;;6216890;23;20519;-94
2023/07/26 03:19:40;;;;;;;6.43;2.17;;;14.20;1.00;;;;;;6218364;23;20259;-96
2023/07/26 03:22:08;;;;;;;4.87;2.00;;;14.10;4.20;;;;;;6217333;23;20203;-96
2023/07/26 03:24:35;;;;;;;3.23;1.87;;;14.10;28.60;;;;;;6217819;23;20174;-95
2023/07/26 03:27:03;;;;;;;2.73;1.90;;;14.10;1.00;;;;;;6217598;23;20238;-96
2023/07/26 03:29:30;;;;;;;5.43;2.10;;;14.10;1.00;;;;;;6217009;23;20203;-96
2023/07/26 03:31:57;;;;;;;2.53;1.90;;;14.00;1.00;;;;;;6217431;23;20203;-96
2023/07/26 03:34:24;;;;;;;3.80;2.10;;;14.00;1.00;;;;;;6217211;23;20513;-95
2023/07/26 03:36:51;;;;;;;5.17;1.90;;;14.00;1.00;;;;;;6217623;23;20239;-94
2023/07/26 03:39:20;;;;;;;3.50;1.80;;;14.00;1.00;;;;;;6217536;23;20175;-95
2023/07/26 03:41:47;;;;;;;4.30;2.07;;;13.90;1.00;;;;;;6216864;23;20199;-95
2023/07/26 03:44:14;;;;;;;3.00;1.93;;;14.00;1.00;;;;;;6216700;23;20233;-95
2023/07/26 03:46:42;;;;;;;3.93;1.70;;;13.90;1.00;;;;;;6217062;23;20175;-96
2023/07/26 03:49:09;;;;;;;3.57;1.97;;;13.90;1.00;;;;;;6217125;23;20242;-96
2023/07/26 03:51:36;;;;;;;5.87;1.97;;;13.90;1.00;;;;;;6216851;23;20178;-96
2023/07/26 03:54:03;;;;;;;3.50;1.80;;;13.90;1.00;;;;;;6217158;23;20185;-96
2023/07/26 03:56:32;;;;;;;1.77;1.53;;;13.90;1.00;;;;;;6217049;23;20210;-96
2023/07/26 03:58:59;;;;;;;5.10;1.90;;;13.90;1.00;;;;;;6217866;23;20253;-95
2023/07/26 04:01:26;;;;;;;6.40;2.33;;;13.90;1.00;;;;;;6216575;23;20254;-94
2023/07/26 04:03:53;;;;;;;4.07;1.53;;;14.00;1.00;;;;;;6217195;23;20179;-96
2023/07/26 04:06:21;;;;;;;5.27;1.83;;;14.00;1.00;;;;;;6217323;23;20255;-95
2023/07/26 04:08:48;;;;;;;3.80;1.73;;;14.00;1.00;;;;;;6217220;23;20250;-94
2023/07/26 04:11:15;;;;;;;4.77;1.73;;;14.10;1.00;;;;;;6217328;23;20256;-94
2023/07/26 04:13:44;;;;;;;2.93;1.80;;;14.10;1.00;;;;;;6217268;23;20254;-96
2023/07/26 04:16:16;;;;;;;3.83;2.10;;;14.20;1.00;;;;;;6216407;23;20188;-96
2023/07/26 04:18:43;;;;;;;4.93;1.63;;;14.30;1.00;;;;;;6217232;23;20181;-95
2023/07/26 04:21:14;;;;;;;3.93;1.63;;;14.40;1.00;;;;;;6217627;23;20179;-95
2023/07/26 04:23:41;;;;;;;4.53;1.50;;;14.50;99.90;;;;;;6217379;23;20238;-96
2023/07/26 04:26:08;;;;;;;5.17;1.80;;;14.50;99.90;;;;;;6216052;23;20245;-96
2023/07/26 04:28:36;;;;;;;3.23;1.90;;;14.60;99.90;;;;;;6217034;23;20901;-96
2023/07/26 04:31:04;;;;;;;5.03;1.87;;;14.60;99.90;;;;;;6216697;23;20190;-95
2023/07/26 04:33:32;;;;;;;3.50;1.80;;;14.70;99.90;;;;;;6217274;23;20559;-96
2023/07/26 04:35:59;;;;;;;2.97;1.73;;;14.70;99.90;;;;;;6216974;23;20283;-95
2023/07/26 04:38:26;;;;;;;4.13;1.60;;;14.80;99.90;;;;;;6216864;23;20264;-95
2023/07/26 04:40:53;;;;;;;5.10;1.47;;;14.90;67.40;;;;;;6216183;23;20204;-95
2023/07/26 04:43:21;;;;;;;3.30;1.80;;;15.00;99.90;;;;;;6217135;23;20176;-95
2023/07/26 04:45:48;;;;;;;8.67;2.10;;;15.40;99.90;;;;;;6217164;23;20698;-96
2023/07/26 04:48:18;;;;;;;4.05;1.45;;;15.80;1.00;;;;;;6216595;23;20176;-95
2023/07/26 04:50:47;;;;;;;4.47;1.65;;;15.90;99.90;;;;;;6216125;23;20253;-94
2023/07/26 04:53:15;;;;;;;5.65;1.80;;;15.80;99.90;;;;;;6217051;23;20266;-95
2023/07/26 04:55:43;;;;;;;5.75;1.90;;;15.70;99.90;;;;;;6216613;23;20196;-95
2023/07/26 04:58:10;;;;;;;4.90;1.60;;;15.60;99.90;;;;;;6216561;23;20177;-96
2023/07/26 05:00:39;;;;;;;13.73;2.50;;;15.50;99.90;;;;;;6216946;23;20258;-95
2023/07/26 05:03:06;;;;;;;2.53;1.43;;;15.30;99.90;;;;;;6216689;23;20182;-95
2023/07/26 05:05:35;;;;;;;8.03;1.90;;;15.30;1.00;;;;;;6216859;23;20254;-95
2023/07/26 05:08:03;;;;;;;3.70;1.63;;;15.40;1.00;;;;;;6216291;23;20178;-94
2023/07/26 05:10:31;;;;;;;5.30;1.37;;;15.50;99.90;;;;;;6217115;23;20170;-96
2023/07/26 05:12:58;;;;;;;3.87;1.40;;;15.50;99.90;;;;;;6216643;23;20247;-95
2023/07/26 05:15:26;;;;;;;4.50;1.60;;;15.50;99.90;;;;;;6216503;23;20183;-96
2023/07/26 05:17:53;;;;;;;2.93;1.73;;;15.50;99.90;;;;;;6216320;23;20651;-95
2023/07/26 05:20:20;;;;;;;7.28;1.60;;;15.50;99.90;;;;;;6216535;23;20177;-96
2023/07/26 05:22:49;;;;;;;3.88;1.80;;;15.60;99.90;;;;;;6217341;23;20179;-95
2023/07/26 05:25:16;;;;;;;2.20;1.42;;;15.60;99.90;;;;;;6216861;23;21000;-95
2023/07/26 05:27:43;;;;;;;4.85;1.80;;;15.60;99.90;;;;;;6216981;23;20617;-96
2023/07/26 05:30:11;;;;;;;6.65;1.98;;;15.70;99.90;;;;;;6216480;23;20249;-95
2023/07/26 05:32:38;;;;;;;4.53;2.00;;;15.70;94.30;;;;;;6216340;23;20250;-95
2023/07/26 05:35:06;;;;;;;5.18;1.70;;;15.80;1.00;;;;;;6216515;23;20273;-95
2023/07/26 05:37:34;;;;;;;3.95;1.60;;;15.90;1.00;;;;;;6215801;23;20629;-95
2023/07/26 05:40:05;;;;;;;4.90;1.73;;;16.10;1.00;;;;;;6216079;23;20629;-95
2023/07/26 05:42:32;;;;;;;4.68;1.40;;;16.20;1.00;;;;;;6215810;23;20199;-95
2023/07/26 05:44:59;;;;;;;4.15;1.60;;;16.30;99.90;;;;;;6216374;23;20175;-96
2023/07/26 05:47:27;;;;;;;3.72;1.90;;;16.40;99.90;;;;;;6216202;23;20713;-92
2023/07/26 05:49:54;;;;;;;4.30;1.52;;;16.40;99.90;;;;;;6216258;23;20172;-95
2023/07/26 05:52:21;;;;;;;4.35;1.52;;;16.50;99.90;;;;;;6216397;23;20247;-95
2023/07/26 05:54:48;;;;;;;2.92;1.40;;;16.60;99.90;;;;;;6218389;23;20173;-95
2023/07/26 05:57:17;;;;;;;4.72;1.52;;;16.70;1.00;;;;;;6218776;23;20228;-96
2023/07/26 05:59:44;;;;;;;4.90;1.65;;;16.80;1.00;;;;;;6218837;23;20199;-94
2023/07/26 06:02:11;;;;;;;4.70;1.55;;;16.90;1.00;;;;;;6218472;23;20176;-95
2023/07/26 06:04:38;;;;;;;3.78;1.58;;;17.00;1.00;;;;;;6218947;23;20254;-96
2023/07/26 06:07:06;;;;;;;4.70;2.25;;;17.10;1.00;;;;;;6218085;23;20172;-94
2023/07/26 06:09:33;;;;;;;5.82;3.00;;;17.30;1.00;;;;;;6218969;23;20176;-95
2023/07/26 06:12:00;;;;;;;7.15;3.40;;;17.50;1.00;;;;;;6218756;23;20173;-94
2023/07/26 06:14:30;;;;;;;16.55;8.90;;;17.70;99.90;;;;;;6217760;23;20172;-95
2023/07/26 06:16:57;;;;;;;10.95;5.88;;;17.90;99.90;;;;;;6217624;23;20189;-95
2023/07/26 06:19:24;;;;;;;6.35;3.42;;;18.00;1.00;;;;;;6218741;23;20559;-95
2023/07/26 06:21:55;;;;;;;26.58;11.23;;;18.20;1.00;;;;;;6217823;23;20256;-94
2023/07/26 06:24:23;;;;;;;11.93;6.28;;;18.40;1.00;;;;;;6218382;23;20658;-95
2023/07/26 06:26:51;;;;;;;23.92;10.98;;;18.60;1.00;;;;;;6218506;23;20170;-95
2023/07/26 06:29:18;;;;;;;10.50;4.20;;;18.80;99.90;;;;;;6217971;23;20179;-95
2023/07/26 06:31:47;;;;;;;10.20;4.75;;;19.00;48.00;;;;;;6218157;23;20504;-96
2023/07/26 06:34:15;;;;;;;6.72;2.80;;;19.20;1.00;;;;;;6217860;23;20197;-94
2023/07/26 06:36:42;;;;;;;10.32;3.78;;;19.40;1.00;;;;;;6217233;23;20200;-94
2023/07/26 06:39:09;;;;;;;8.23;3.67;;;19.50;1.00;;;;;;6217995;23;20430;-96
2023/07/26 06:41:37;;;;;;;13.55;6.18;;;19.70;99.90;;;;;;6217700;23;20525;-94
2023/07/26 06:44:04;;;;;;;5.97;2.70;;;19.70;99.90;;;;;;6217904;23;20671;-96
2023/07/26 06:46:33;;;;;;;9.25;4.43;;;19.70;90.20;;;;;;6217078;23;20197;-94
2023/07/26 06:49:02;;;;;;;31.23;14.02;;;19.70;99.90;;;;;;6217742;23;20173;-94
2023/07/26 06:51:29;;;;;;;22.17;9.82;;;19.80;99.90;;;;;;6217379;23;20252;-95
2023/07/26 06:53:56;;;;;;;22.25;9.40;;;20.00;99.90;;;;;;6217890;23;20255;-94
2023/07/26 06:56:23;;;;;;;20.65;8.30;;;19.90;17.90;;;;;;6217065;23;20268;-94
2023/07/26 06:58:52;;;;;;;34.42;13.20;;;19.80;1.00;;;;;;6217109;23;20201;-93
2023/07/26 07:01:20;;;;;;;41.63;16.08;;;19.60;78.40;;;;;;6216703;23;20228;-94
2023/07/26 07:03:47;;;;;;;33.22;12.23;;;19.60;99.90;;;;;;6217014;23;20200;-94
2023/07/26 07:06:16;;;;;;;25.60;10.68;;;19.60;99.90;;;;;;6216483;23;20248;-95
2023/07/26 07:08:43;;;;;;;40.92;16.85;;;19.60;99.90;;;;;;6217252;23;20165;-95
2023/07/26 07:11:11;;;;;;;17.33;6.55;;;19.70;99.90;;;;;;6218072;23;20240;-95
2023/07/26 07:13:38;;;;;;;46.70;17.00;;;19.80;99.90;;;;;;6216910;23;20240;-94
2023/07/26 07:16:05;;;;;;;52.67;19.80;;;19.90;16.80;;;;;;6216439;23;20259;-94
2023/07/26 07:18:33;;;;;;;13.30;5.32;;;19.80;1.00;;;;;;6216812;23;20161;-94
2023/07/26 07:21:01;;;;;;;18.05;7.22;;;19.90;1.00;;;;;;6217290;23;20212;-94
2023/07/26 07:23:30;;;;;;;45.72;16.23;;;20.10;1.00;;;;;;6217870;23;20181;-95
2023/07/26 07:25:58;;;;;;;9.65;3.70;;;20.30;1.00;;;;;;6217380;23;20172;-94
2023/07/26 07:28:25;;;;;;;36.47;15.07;;;20.30;1.00;;;;;;6217150;23;20184;-94
2023/07/26 07:30:52;;;;;;;22.95;8.75;;;20.30;1.00;;;;;;6217237;23;20281;-96
2023/07/26 07:33:19;;;;;;;40.50;17.10;;;20.10;1.00;;;;;;6217647;23;20179;-94
2023/07/26 07:35:47;;;;;;;39.03;17.05;;;20.00;1.00;;;;;;6217229;23;20192;-93
2023/07/26 07:38:15;;;;;;;24.02;9.60;;;19.80;1.00;;;;;;6217716;23;20168;-94
2023/07/26 07:40:44;;;;;;;29.77;12.05;;;19.70;1.00;;;;;;6217782;23;21016;-94
2023/07/26 07:43:11;;;;;;;25.65;8.25;;;19.60;1.00;;;;;;6217316;23;20171;-94
2023/07/26 07:45:41;;;;;;;50.65;16.65;;;19.60;1.00;;;;;;6216888;23;20175;-96
2023/07/26 07:48:09;;;;;;;47.83;13.98;;;19.70;1.00;;;;;;6216923;23;20179;-94
2023/07/26 07:50:36;;;;;;;33.67;14.05;;;19.80;1.00;;;;;;6217036;23;20548;-95
2023/07/26 07:53:04;;;;;;;10.07;3.95;;;19.90;1.00;;;;;;6217433;23;20172;-96
2023/07/26 07:55:31;;;;;;;45.42;15.45;;;20.00;1.00;;;;;;6216984;23;20173;-95
2023/07/26 07:58:01;;;;;;;16.48;6.00;;;20.10;1.00;;;;;;6217215;23;20169;-94
2023/07/26 08:00:28;;;;;;;15.57;6.10;;;20.30;1.00;;;;;;6217051;23;20153;-95
2023/07/26 08:02:55;;;;;;;6.90;1.95;;;20.40;1.00;;;;;;6217602;23;20172;-93
2023/07/26 08:05:23;;;;;;;12.18;2.35;;;20.40;1.00;;;;;;6217222;23;20506;-95
2023/07/26 08:07:52;;;;;;;32.33;12.93;;;20.60;1.00;;;;;;6217012;23;20169;-94
2023/07/26 08:10:19;;;;;;;31.27;12.93;;;20.90;1.00;;;;;;6217064;23;20173;-94
2023/07/26 08:12:47;;;;;;;39.47;15.68;;;21.10;99.90;;;;;;6216842;23;20199;-93
2023/07/26 08:15:15;;;;;;;31.80;12.77;;;21.10;99.90;;;;;;6216730;23;20240;-94
2023/07/26 08:17:42;;;;;;;14.02;5.35;;;21.00;99.90;;;;;;6216731;23;20199;-93
2023/07/26 08:20:11;;;;;;;22.88;8.73;;;20.90;99.90;;;;;;6216816;23;20252;-94
2023/07/26 08:22:39;;;;;;;36.10;11.27;;;21.10;99.90;;;;;;6217004;23;20627;-94
2023/07/26 08:25:07;;;;;;;5.35;2.30;;;21.40;99.90;;;;;;6216732;23;20252;-93
2023/07/26 08:27:35;;;;;;;5.93;2.40;;;21.60;99.90;;;;;;6216959;23;20165;-93
2023/07/26 08:30:02;;;;;;;28.42;10.02;;;21.60;89.60;;;;;;6216631;23;20162;-95
2023/07/26 08:32:31;;;;;;;30.42;11.30;;;21.60;73.90;;;;;;6217037;23;20177;-94
2023/07/26 08:34:58;;;;;;;33.47;14.18;;;21.50;55.10;;;;;;6216668;23;20176;-95
2023/07/26 08:37:25;;;;;;;45.92;17.00;;;21.50;62.30;;;;;;6216281;23;20195;-94
2023/07/26 08:39:52;;;;;;;19.08;8.25;;;21.50;53.30;;;;;;6216319;23;20204;-94
2023/07/26 08:42:20;;;;;;;54.75;19.52;;;21.40;9.50;;;;;;6215893;23;20279;-95
2023/07/26 08:44:50;;;;;;;15.43;5.03;;;21.30;13.80;;;;;;6216981;23;20183;-94
2023/07/26 08:47:19;;;;;;;10.93;3.92;;;21.50;1.00;;;;;;6216979;23;20232;-94
2023/07/26 08:49:49;;;;;;;7.47;2.53;;;21.70;1.00;;;;;;6216100;23;20173;-94
2023/07/26 08:52:18;;;;;;;44.17;15.25;;;22.00;1.00;;;;;;6216546;23;20210;-94
2023/07/26 08:54:47;;;;;;;26.08;8.68;;;22.30;1.00;;;;;;6216547;23;20695;-95
2023/07/26 08:57:15;;;;;;;16.13;5.40;;;22.40;1.00;;;;;;6216136;23;20185;-94
2023/07/26 08:59:42;;;;;;;46.35;15.35;;;22.30;1.00;;;;;;6216564;23;20511;-94
2023/07/26 09:02:13;;;;;;;51.90;17.10;;;22.20;1.00;;;;;;6216139;23;20172;-94
2023/07/26 09:04:41;;;;;;;28.27;9.73;;;22.20;1.00;;;;;;6216602;23;20153;-95
2023/07/26 09:07:10;;;;;;;41.85;16.60;;;22.40;1.00;;;;;;6216286;23;20173;-94
2023/07/26 09:09:38;;;;;;;22.85;9.98;;;22.70;1.00;;;;;;6216511;23;20224;-94
2023/07/26 09:12:07;;;;;;;5.55;2.10;;;22.90;1.00;;;;;;6216344;23;20623;-94
2023/07/26 09:14:35;;;;;;;10.80;3.47;;;22.80;1.00;;;;;;6216631;23;20177;-94
2023/07/26 09:17:04;;;;;;;11.60;4.32;;;22.80;1.00;;;;;;6217165;23;20199;-94
2023/07/26 09:19:33;;;;;;;15.07;6.57;;;23.00;1.00;;;;;;6216885;23;20183;-94
2023/07/26 09:22:02;;;;;;;5.85;2.25;;;23.00;1.00;;;;;;6216292;23;20181;-94
2023/07/26 09:24:34;;;;;;;27.63;9.98;;;23.10;1.00;;;;;;6216129;23;20173;-95
2023/07/26 09:27:07;;;;;;;8.98;3.20;;;23.00;1.00;;;;;;6216010;23;20570;-95
2023/07/26 09:29:35;;;;;;;24.15;8.43;;;22.90;1.00;;;;;;6215993;23;20180;-95
2023/07/26 09:32:03;;;;;;;12.82;6.18;;;22.90;1.00;;;;;;6216298;23;20251;-94
2023/07/26 09:34:31;;;;;;;19.52;8.25;;;23.00;1.00;;;;;;6216657;23;20204;-93
2023/07/26 09:36:59;;;;;;;13.50;5.60;;;23.00;1.00;;;;;;6216147;23;20272;-93
2023/07/26 09:39:32;;;;;;;27.88;13.05;;;22.90;1.00;;;;;;6215367;23;20252;-94
2023/07/26 09:42:08;;;;;;;9.23;3.78;;;23.10;1.00;;;;;;6215944;23;20250;-94
2023/07/26 09:44:36;;;;;;;6.28;2.50;;;23.00;1.00;;;;;;6216513;23;20153;-95
2023/07/26 09:47:04;;;;;;;3.17;1.65;;;23.00;1.00;;;;;;6216315;23;20180;-94
2023/07/26 09:49:31;;;;;;;9.65;4.43;;;23.40;1.00;;;;;;6215734;23;20161;-95
2023/07/26 09:52:00;;;;;;;12.07;4.93;;;23.70;1.00;;;;;;6216785;23;20180;-94
2023/07/26 09:54:28;;;;;;;5.85;2.35;;;23.60;1.00;;;;;;6215799;23;20251;-95
2023/07/26 09:56:56;;;;;;;5.18;2.17;;;23.50;1.00;;;;;;6215786;23;20678;-94
2023/07/26 09:59:28;;;;;;;12.38;6.00;;;23.40;1.00;;;;;;6215410;23;20173;-95
2023/07/26 10:01:56;;;;;;;3.92;1.33;;;23.50;1.00;;;;;;6216342;23;20154;-94
2023/07/26 10:04:28;;;;;;;7.20;2.88;;;23.80;1.00;;;;;;6216726;23;20474;-94
2023/07/26 10:06:58;;;;;;;7.32;4.53;;;24.10;1.00;;;;;;6215824;23;20160;-95
2023/07/26 10:09:25;;;;;;;6.03;3.15;;;24.40;1.00;;;;;;6215998;23;20619;-93
2023/07/26 10:11:54;;;;;;;8.65;3.72;;;24.30;1.00;;;;;;6215645;23;20219;-95
2023/07/26 10:14:23;;;;;;;6.20;2.75;;;24.20;1.00;;;;;;6215992;23;20177;-95
2023/07/26 10:16:53;;;;;;;4.22;2.38;;;24.10;1.00;;;;;;6216076;23;20184;-94
2023/07/26 10:19:22;;;;;;;5.10;1.73;;;24.10;1.00;;;;;;6216013;23;20149;-94
2023/07/26 10:21:51;;;;;;;7.82;4.20;;;24.30;1.00;;;;;;6216488;23;20251;-95
2023/07/26 10:24:20;;;;;;;4.88;2.80;;;24.30;1.00;;;;;;6216742;23;20203;-94
2023/07/26 10:26:49;;;;;;;7.60;2.90;;;24.10;1.00;;;;;;6215802;23;20249;-93
2023/07/26 10:29:17;;;;;;;4.05;2.30;;;23.70;1.00;;;;;;6216103;23;20169;-93
2023/07/26 10:31:44;;;;;;;4.28;2.60;;;23.30;1.00;;;;;;6216806;23;20176;-94
2023/07/26 10:34:20;;;;;;;5.22;2.90;;;23.10;1.00;;;;;;6215070;23;20173;-94
2023/07/26 10:36:47;;;;;;;4.82;1.98;;;23.00;1.00;;;;;;6215093;23;20181;-94
2023/07/26 10:39:14;;;;;;;7.22;3.50;;;23.10;1.00;;;;;;6215947;23;20649;-93
2023/07/26 10:41:50;;;;;;;5.40;1.90;;;23.00;1.00;;;;;;6217923;23;20510;-93
2023/07/26 10:44:17;;;;;;;3.92;2.00;;;22.80;1.00;;;;;;6217947;23;20164;-93
2023/07/26 10:46:52;;;;;;;4.68;1.65;;;22.80;1.00;;;;;;6217727;23;20201;-95
2023/07/26 10:49:26;;;;;;;3.45;1.42;;;23.00;1.00;;;;;;6217625;23;20256;-93
2023/07/26 10:51:58;;;;;;;4.25;1.80;;;23.30;1.00;;;;;;6217892;23;20157;-95
2023/07/26 10:54:34;;;;;;;5.65;1.45;;;23.50;1.00;;;;;;6217397;23;20175;-94
2023/07/26 10:57:22;;;;;;;2.15;1.17;;;23.40;1.00;;;;;;6217540;23;20172;-95
2023/07/26 11:00:00;;;;;;;2.05;1.30;;;23.30;1.00;;;;;;6217735;23;20240;-94
2023/07/26 11:03:00;;;;;;;3.75;1.52;;;23.50;1.00;;;;;;6217605;23;20173;-94
2023/07/26 11:05:29;;;;;;;2.55;1.38;;;23.60;1.00;;;;;;6217032;23;20165;-93
2023/07/26 11:07:59;;;;;;;4.18;1.92;;;23.60;1.00;;;;;;6217169;23;20176;-95
2023/07/26 11:10:29;;;;;;;4.47;1.88;;;23.90;1.00;;;;;;6217481;23;20627;-94
2023/07/26 11:13:11;;;;;;;2.03;1.40;;;24.10;1.00;;;;;;6217597;23;20503;-94
2023/07/26 11:15:40;;;;;;;2.28;1.67;;;24.10;1.00;;;;;;6218093;23;20165;-94
2023/07/26 11:18:07;;;;;;;3.10;2.00;;;24.00;1.00;;;;;;6217405;23;20192;-94
2023/07/26 11:20:38;;;;;;;4.28;1.80;;;24.10;1.00;;;;;;6217845;23;20169;-94
2023/07/26 11:23:16;;;;;;;3.05;1.30;;;24.10;1.00;;;;;;6217378;23;20228;-95
2023/07/26 11:25:43;;;;;;;4.50;2.10;;;24.20;1.00;;;;;;6217296;23;20157;-95
2023/07/26 11:28:11;;;;;;;2.85;1.40;;;24.30;1.00;;;;;;6217662;23;20172;-94
2023/07/26 11:30:39;;;;;;;3.58;2.30;;;24.40;1.00;;;;;;6217464;23;20173;-94
2023/07/26 11:33:06;;;;;;;4.70;2.85;;;24.50;1.00;;;;;;6217178;23;20238;-95
2023/07/26 11:35:41;;;;;;;3.72;1.60;;;24.60;1.00;;;;;;6217703;23;20175;-96
2023/07/26 11:38:13;;;;;;;3.85;2.40;;;24.70;1.00;;;;;;6217254;23;20176;-94
2023/07/26 11:40:41;;;;;;;5.20;1.70;;;24.80;1.00;;;;;;6217301;23;20347;-95
2023/07/26 11:43:08;;;;;;;2.53;1.75;;;25.20;1.00;;;;;;6216990;23;20200;-92
2023/07/26 11:45:37;;;;;;;2.80;2.20;;;25.50;1.00;;;;;;6216545;23;20169;-94
2023/07/26 11:48:05;;;;;;;5.20;2.10;;;25.30;1.00;;;;;;6216760;23;20620;-95
2023/07/26 11:50:32;;;;;;;3.00;1.83;;;25.00;1.00;;;;;;6216235;23;20192;-94
2023/07/26 11:53:09;;;;;;;2.97;1.70;;;24.80;1.00;;;;;;6218087;23;20168;-95
2023/07/26 11:55:39;;;;;;;3.05;2.00;;;24.60;1.00;;;;;;6217416;23;20157;-94
2023/07/26 11:58:08;;;;;;;3.80;1.50;;;24.50;1.00;;;;;;6216549;23;20222;-94
2023/07/26 12:00:36;;;;;;;2.50;1.50;;;24.30;1.00;;;;;;6216660;23;20173;-93
2023/07/26 12:03:05;;;;;;;2.85;1.80;;;24.10;1.00;;;;;;6216787;23;20169;-94
2023/07/26 12:05:32;;;;;;;4.03;1.80;;;24.20;1.00;;;;;;6216070;23;20169;-95
2023/07/26 12:08:01;;;;;;;3.50;1.90;;;24.40;1.00;;;;;;6217264;23;20165;-94
2023/07/26 12:10:32;;;;;;;3.13;1.35;;;24.60;1.00;;;;;;6217042;23;20188;-94
2023/07/26 12:12:59;;;;;;;4.22;1.73;;;24.80;1.00;;;;;;6216636;23;20150;-94
2023/07/26 12:15:28;;;;;;;3.45;1.80;;;25.10;1.00;;;;;;6216517;23;20240;-92
2023/07/26 12:18:00;;;;;;;3.15;1.88;;;25.30;1.00;;;;;;6217256;23;20259;-93
2023/07/26 12:20:29;;;;;;;3.22;2.00;;;25.20;1.00;;;;;;6215711;23;20160;-95
2023/07/26 12:22:58;;;;;;;2.95;1.50;;;25.10;1.00;;;;;;6217420;23;20631;-95
2023/07/26 12:25:36;;;;;;;2.75;1.70;;;24.90;1.00;;;;;;6217871;23;20169;-94
2023/07/26 12:28:06;;;;;;;3.10;1.38;;;24.60;1.00;;;;;;6216906;23;20149;-94
2023/07/26 12:30:33;;;;;;;2.20;1.50;;;24.60;1.00;;;;;;6216940;23;20699;-94
2023/07/26 12:33:11;;;;;;;3.28;1.58;;;24.80;1.00;;;;;;6216335;23;20171;-95
2023/07/26 12:35:39;;;;;;;5.55;1.55;;;24.80;1.00;;;;;;6216336;23;20209;-94
2023/07/26 12:38:13;;;;;;;2.15;1.35;;;25.00;1.00;;;;;;6215740;23;20243;-94
2023/07/26 12:40:42;;;;;;;2.13;1.55;;;25.30;1.00;;;;;;6216831;23;20694;-95
2023/07/26 12:43:27;;;;;;;2.42;1.30;;;25.40;1.00;;;;;;6216173;23;20158;-93
2023/07/26 12:45:55;;;;;;;3.00;1.45;;;25.10;1.00;;;;;;6217080;23;20157;-94
2023/07/26 12:48:23;;;;;;;1.60;1.20;;;24.80;1.00;;;;;;6216809;23;20169;-94
2023/07/26 12:50:51;;;;;;;1.92;1.50;;;24.50;1.00;;;;;;6216191;23;20168;-94
2023/07/26 12:53:19;;;;;;;2.95;1.48;;;24.30;1.00;;;;;;6216771;23;20173;-94
2023/07/26 12:55:48;;;;;;;2.67;1.33;;;24.30;1.00;;;;;;6217110;23;20169;-95
2023/07/26 12:58:15;;;;;;;3.95;1.60;;;24.50;1.00;;;;;;6216748;23;20193;-94